Du Quoin, Illinois
Current Conditions -  °F | °C
As of 7:52 PM on Friday 31 Oct 2014 (Local Time) from KMDH Reporting Station
Clear Clear  
Wind Chill: 33°   Ceiling: Unl
Heat Index: 40°   Visibility: 10mi
Dew Point: 21°   Wind: 13mph
Humidity: 47%   Direction: 330°NNW
Pressure: 30.31"   Gusts: 21mph
Location:  38.01°N, 89.24°W
Report Text: KMDH 010052Z AUTO 33011G18KT 10SM CLR 04/M06 A3031 RMK AO2 SLP264 T00441061
Loading
Personal Weather Stations






























Interactive Weather Map
Tropical Storm Tracking
New forecast layout! Learn more

10-Day Weather Forecast

Advertisements
Track Severe Weather on mobile